Terminal Aerodrome Forecast
Issued by NWS Indianapolis, IN

Home | Current Version | Previous Version | Text Only | Print | Product List | Glossary On
Versions: 1 2 3 4 5 6 7 8 9 10 11 12 13 14 15 16 17 18 19 20 21 22 23 24 25 26 27
000
FTUS43 KIND 221820 AAA
TAFIND
TAF AMD
KIND 221820Z 2218/2324 19013G21KT P6SM VCSH SCT025 BKN035 BKN050
     FM222200 18012KT P6SM VCSH BKN030
     FM230100 18009KT P6SM VCSH OVC015
     FM230600 20010KT P6SM SHRA VCTS OVC008CB
     FM230900 21009KT P6SM SHRA OVC008
     FM231200 22009KT P6SM SHRA OVC015
     FM231600 23009KT 5SM SHRA OVC010
     FM232200 29006KT 6SM SHRA BR BKN045=

USA.gov is the U.S. government's official web portal to all federal, state and local government web resources and services.